KFMH/FMH METAR and TAF weather

Enter ICAO airport designator
Station Type Date Time Source
KFMH METAR 2021/04/14 20:55 UTC NOAA

KFMH 142055Z 13012KT 10SM CLR 12/02 A2999


Station Type Date Time Source
KFMH Decoded METAR 2021/04/14 20:55 UTC NOAA

Otis Air National Guard Base, MA, United States (KFMH) 41-39N 070-31W
Apr 14, 2021 - 04:55 PM EDT / 2021.04.14 2055 UTC
Wind: from the SE (130 degrees) at 14 MPH (12 KT):0
Visibility: 10 mile(s):0
Sky conditions: clear
Temperature: 53 F (12 C)
Dew Point: 35 F (2 C)
Relative Humidity: 50%
Pressure (altimeter): 29.99 in. Hg (1015 hPa)
ob: KFMH 142055Z 13012KT 10SM CLR 12/02 A2999
cycle: 21

Station Type Date Time Source
KFMH TAF 2021/04/14 18:22 UTC NOAA

TAF KFMH 141720Z 1418/1518 06006KT P6SM SCT100
FM150000 14004KT P6SM FEW150
FM150800 12005KT P6SM BKN070
FM151500 11011KT P6SM BKN090

Example: see airport list